sensor_id;sensor_type;location;lat;lon;timestamp;P1;durP1;ratioP1;P2;durP2;ratioP2
5616;SDS011;2830;50.656;7.568;2022-12-08T00:01:11;19.35;;;9.55;;
5616;SDS011;2830;50.656;7.568;2022-12-08T00:03:40;18.25;;;9.60;;
5616;SDS011;2830;50.656;7.568;2022-12-08T00:06:12;17.60;;;9.38;;
5616;SDS011;2830;50.656;7.568;2022-12-08T00:09:13;17.52;;;8.60;;
5616;SDS011;2830;50.656;7.568;2022-12-08T00:11:56;20.23;;;10.10;;
5616;SDS011;2830;50.656;7.568;2022-12-08T00:14:29;20.95;;;9.60;;
5616;SDS011;2830;50.656;7.568;2022-12-08T00:16:57;19.90;;;8.95;;
5616;SDS011;2830;50.656;7.568;2022-12-08T00:19:25;17.13;;;9.88;;
5616;SDS011;2830;50.656;7.568;2022-12-08T00:21:52;18.85;;;9.18;;
5616;SDS011;2830;50.656;7.568;2022-12-08T00:24:20;21.20;;;8.95;;
5616;SDS011;2830;50.656;7.568;2022-12-08T00:26:47;19.98;;;9.55;;
5616;SDS011;2830;50.656;7.568;2022-12-08T00:29:14;17.85;;;9.70;;
5616;SDS011;2830;50.656;7.568;2022-12-08T00:31:43;17.52;;;9.18;;
5616;SDS011;2830;50.656;7.568;2022-12-08T00:34:10;16.23;;;8.63;;
5616;SDS011;2830;50.656;7.568;2022-12-08T00:36:38;20.10;;;8.68;;
5616;SDS011;2830;50.656;7.568;2022-12-08T00:39:05;14.40;;;7.45;;
5616;SDS011;2830;50.656;7.568;2022-12-08T00:41:32;17.10;;;7.80;;
5616;SDS011;2830;50.656;7.568;2022-12-08T00:44:17;20.38;;;9.20;;
5616;SDS011;2830;50.656;7.568;2022-12-08T00:46:44;18.98;;;7.82;;
5616;SDS011;2830;50.656;7.568;2022-12-08T00:49:12;22.10;;;9.27;;
5616;SDS011;2830;50.656;7.568;2022-12-08T00:51:39;18.00;;;8.30;;
5616;SDS011;2830;50.656;7.568;2022-12-08T00:54:06;20.45;;;10.05;;
5616;SDS011;2830;50.656;7.568;2022-12-08T00:56:33;23.33;;;8.30;;
5616;SDS011;2830;50.656;7.568;2022-12-08T00:59:00;19.33;;;9.07;;
5616;SDS011;2830;50.656;7.568;2022-12-08T01:01:29;21.77;;;9.82;;
5616;SDS011;2830;50.656;7.568;2022-12-08T01:03:56;16.48;;;7.65;;
5616;SDS011;2830;50.656;7.568;2022-12-08T01:06:23;15.70;;;7.32;;
5616;SDS011;2830;50.656;7.568;2022-12-08T01:08:49;18.33;;;7.60;;
5616;SDS011;2830;50.656;7.568;2022-12-08T01:11:17;15.73;;;7.45;;
5616;SDS011;2830;50.656;7.568;2022-12-08T01:13:45;17.27;;;8.00;;
5616;SDS011;2830;50.656;7.568;2022-12-08T01:16:22;16.17;;;8.45;;
5616;SDS011;2830;50.656;7.568;2022-12-08T01:18:51;15.80;;;7.78;;
5616;SDS011;2830;50.656;7.568;2022-12-08T01:21:18;16.95;;;7.85;;
5616;SDS011;2830;50.656;7.568;2022-12-08T01:23:45;19.15;;;8.85;;
5616;SDS011;2830;50.656;7.568;2022-12-08T01:26:12;17.73;;;7.93;;
5616;SDS011;2830;50.656;7.568;2022-12-08T01:28:40;18.17;;;7.20;;
5616;SDS011;2830;50.656;7.568;2022-12-08T01:31:19;13.82;;;6.78;;
5616;SDS011;2830;50.656;7.568;2022-12-08T01:33:47;17.20;;;7.28;;
5616;SDS011;2830;50.656;7.568;2022-12-08T01:36:21;14.98;;;7.63;;
5616;SDS011;2830;50.656;7.568;2022-12-08T01:38:50;16.45;;;7.22;;
5616;SDS011;2830;50.656;7.568;2022-12-08T01:41:20;17.27;;;8.18;;
5616;SDS011;2830;50.656;7.568;2022-12-08T01:43:56;14.85;;;6.97;;
5616;SDS011;2830;50.656;7.568;2022-12-08T01:46:25;14.50;;;7.25;;
5616;SDS011;2830;50.656;7.568;2022-12-08T01:48:56;18.98;;;7.72;;
5616;SDS011;2830;50.656;7.568;2022-12-08T01:51:32;12.70;;;6.72;;
5616;SDS011;2830;50.656;7.568;2022-12-08T01:54:02;18.55;;;7.15;;
5616;SDS011;2830;50.656;7.568;2022-12-08T01:56:36;15.20;;;7.07;;
5616;SDS011;2830;50.656;7.568;2022-12-08T01:59:09;14.60;;;6.85;;
5616;SDS011;2830;50.656;7.568;2022-12-08T02:01:37;18.10;;;7.25;;
5616;SDS011;2830;50.656;7.568;2022-12-08T02:04:04;15.93;;;8.13;;
5616;SDS011;2830;50.656;7.568;2022-12-08T02:06:32;16.42;;;7.15;;
5616;SDS011;2830;50.656;7.568;2022-12-08T02:09:02;14.68;;;6.43;;
5616;SDS011;2830;50.656;7.568;2022-12-08T02:11:30;15.90;;;6.82;;
5616;SDS011;2830;50.656;7.568;2022-12-08T02:13:57;15.43;;;6.50;;
5616;SDS011;2830;50.656;7.568;2022-12-08T02:22:11;15.10;;;6.75;;
5616;SDS011;2830;50.656;7.568;2022-12-08T02:24:59;15.85;;;6.80;;
5616;SDS011;2830;50.656;7.568;2022-12-08T02:27:41;19.15;;;7.10;;
5616;SDS011;2830;50.656;7.568;2022-12-08T02:33:15;15.10;;;6.43;;
5616;SDS011;2830;50.656;7.568;2022-12-08T02:39:24;15.38;;;7.13;;
5616;SDS011;2830;50.656;7.568;2022-12-08T02:44:30;18.20;;;7.65;;
5616;SDS011;2830;50.656;7.568;2022-12-08T02:47:04;14.85;;;7.07;;
5616;SDS011;2830;50.656;7.568;2022-12-08T02:49:36;14.68;;;6.93;;
5616;SDS011;2830;50.656;7.568;2022-12-08T02:54:40;14.93;;;6.65;;
5616;SDS011;2830;50.656;7.568;2022-12-08T02:57:14;13.50;;;6.30;;
5616;SDS011;2830;50.656;7.568;2022-12-08T03:02:37;13.02;;;5.90;;
5616;SDS011;2830;50.656;7.568;2022-12-08T03:05:12;13.07;;;5.43;;
5616;SDS011;2830;50.656;7.568;2022-12-08T03:08:05;13.52;;;5.32;;
5616;SDS011;2830;50.656;7.568;2022-12-08T03:10:41;13.85;;;5.68;;
5616;SDS011;2830;50.656;7.568;2022-12-08T03:13:14;15.63;;;5.35;;
5616;SDS011;2830;50.656;7.568;2022-12-08T03:15:45;11.70;;;4.95;;
5616;SDS011;2830;50.656;7.568;2022-12-08T03:18:16;15.95;;;5.88;;
5616;SDS011;2830;50.656;7.568;2022-12-08T03:20:45;12.88;;;6.00;;
5616;SDS011;2830;50.656;7.568;2022-12-08T03:23:13;15.85;;;5.47;;
5616;SDS011;2830;50.656;7.568;2022-12-08T03:25:46;15.07;;;6.28;;
5616;SDS011;2830;50.656;7.568;2022-12-08T03:28:21;12.98;;;6.30;;
5616;SDS011;2830;50.656;7.568;2022-12-08T03:30:48;17.20;;;6.40;;
5616;SDS011;2830;50.656;7.568;2022-12-08T03:33:22;12.30;;;5.28;;
5616;SDS011;2830;50.656;7.568;2022-12-08T03:35:51;14.65;;;6.40;;
5616;SDS011;2830;50.656;7.568;2022-12-08T03:38:19;13.70;;;5.35;;
5616;SDS011;2830;50.656;7.568;2022-12-08T03:40:47;12.52;;;5.38;;
5616;SDS011;2830;50.656;7.568;2022-12-08T03:43:34;13.52;;;4.50;;
5616;SDS011;2830;50.656;7.568;2022-12-08T03:46:01;15.98;;;4.38;;
5616;SDS011;2830;50.656;7.568;2022-12-08T03:48:27;15.00;;;5.13;;
5616;SDS011;2830;50.656;7.568;2022-12-08T03:50:54;12.68;;;4.38;;
5616;SDS011;2830;50.656;7.568;2022-12-08T03:53:21;11.82;;;4.85;;
5616;SDS011;2830;50.656;7.568;2022-12-08T03:55:47;11.30;;;4.63;;
5616;SDS011;2830;50.656;7.568;2022-12-08T03:58:14;12.45;;;4.70;;
5616;SDS011;2830;50.656;7.568;2022-12-08T04:00:41;13.40;;;4.45;;
5616;SDS011;2830;50.656;7.568;2022-12-08T04:03:07;12.13;;;4.90;;
5616;SDS011;2830;50.656;7.568;2022-12-08T04:05:34;11.98;;;5.57;;
5616;SDS011;2830;50.656;7.568;2022-12-08T04:08:01;13.10;;;4.70;;
5616;SDS011;2830;50.656;7.568;2022-12-08T04:10:27;13.75;;;4.70;;
5616;SDS011;2830;50.656;7.568;2022-12-08T04:12:55;10.75;;;4.10;;
5616;SDS011;2830;50.656;7.568;2022-12-08T04:15:22;10.15;;;3.92;;
5616;SDS011;2830;50.656;7.568;2022-12-08T04:17:49;13.70;;;4.35;;
5616;SDS011;2830;50.656;7.568;2022-12-08T04:20:16;10.65;;;3.65;;
5616;SDS011;2830;50.656;7.568;2022-12-08T04:22:43;9.50;;;3.60;;
5616;SDS011;2830;50.656;7.568;2022-12-08T04:25:09;10.27;;;4.22;;
5616;SDS011;2830;50.656;7.568;2022-12-08T04:27:36;9.73;;;3.78;;
5616;SDS011;2830;50.656;7.568;2022-12-08T04:30:03;11.60;;;4.10;;
5616;SDS011;2830;50.656;7.568;2022-12-08T04:32:30;18.48;;;4.55;;
5616;SDS011;2830;50.656;7.568;2022-12-08T04:34:57;12.38;;;4.05;;
5616;SDS011;2830;50.656;7.568;2022-12-08T04:37:24;11.27;;;4.10;;
5616;SDS011;2830;50.656;7.568;2022-12-08T04:39:50;11.38;;;4.28;;
5616;SDS011;2830;50.656;7.568;2022-12-08T04:42:17;11.27;;;5.25;;
5616;SDS011;2830;50.656;7.568;2022-12-08T04:44:43;13.20;;;4.90;;
5616;SDS011;2830;50.656;7.568;2022-12-08T04:47:10;11.45;;;4.75;;
5616;SDS011;2830;50.656;7.568;2022-12-08T04:49:37;10.05;;;4.15;;
5616;SDS011;2830;50.656;7.568;2022-12-08T04:52:03;11.77;;;4.78;;
5616;SDS011;2830;50.656;7.568;2022-12-08T04:54:30;11.50;;;3.95;;
5616;SDS011;2830;50.656;7.568;2022-12-08T04:56:57;10.55;;;4.32;;
5616;SDS011;2830;50.656;7.568;2022-12-08T04:59:23;9.90;;;3.88;;
5616;SDS011;2830;50.656;7.568;2022-12-08T05:01:50;11.80;;;4.53;;
5616;SDS011;2830;50.656;7.568;2022-12-08T05:04:17;9.85;;;4.15;;
5616;SDS011;2830;50.656;7.568;2022-12-08T05:06:43;10.10;;;4.28;;
5616;SDS011;2830;50.656;7.568;2022-12-08T05:09:10;10.77;;;4.55;;
5616;SDS011;2830;50.656;7.568;2022-12-08T05:11:37;9.80;;;4.03;;
5616;SDS011;2830;50.656;7.568;2022-12-08T05:14:14;12.35;;;4.47;;
5616;SDS011;2830;50.656;7.568;2022-12-08T05:16:41;11.85;;;4.05;;
5616;SDS011;2830;50.656;7.568;2022-12-08T05:19:10;12.63;;;4.55;;
5616;SDS011;2830;50.656;7.568;2022-12-08T05:21:38;75.53;;;42.33;;
5616;SDS011;2830;50.656;7.568;2022-12-08T05:24:05;12.18;;;5.90;;
5616;SDS011;2830;50.656;7.568;2022-12-08T05:26:31;11.27;;;4.53;;
5616;SDS011;2830;50.656;7.568;2022-12-08T05:28:58;12.05;;;4.30;;
5616;SDS011;2830;50.656;7.568;2022-12-08T05:31:25;14.60;;;4.55;;
5616;SDS011;2830;50.656;7.568;2022-12-08T05:33:52;10.95;;;4.60;;
5616;SDS011;2830;50.656;7.568;2022-12-08T05:36:19;10.40;;;4.40;;
5616;SDS011;2830;50.656;7.568;2022-12-08T05:38:46;15.98;;;5.30;;
5616;SDS011;2830;50.656;7.568;2022-12-08T05:41:14;12.75;;;5.07;;
5616;SDS011;2830;50.656;7.568;2022-12-08T05:43:42;10.80;;;4.68;;
5616;SDS011;2830;50.656;7.568;2022-12-08T05:46:10;13.55;;;4.95;;
5616;SDS011;2830;50.656;7.568;2022-12-08T05:48:37;12.40;;;5.35;;
5616;SDS011;2830;50.656;7.568;2022-12-08T05:51:04;12.05;;;4.75;;
5616;SDS011;2830;50.656;7.568;2022-12-08T05:53:33;12.13;;;4.85;;
5616;SDS011;2830;50.656;7.568;2022-12-08T05:56:00;13.00;;;5.40;;
5616;SDS011;2830;50.656;7.568;2022-12-08T05:58:27;12.10;;;5.13;;
5616;SDS011;2830;50.656;7.568;2022-12-08T06:00:53;13.45;;;5.45;;
5616;SDS011;2830;50.656;7.568;2022-12-08T06:03:20;12.88;;;5.15;;
5616;SDS011;2830;50.656;7.568;2022-12-08T06:05:47;13.68;;;4.95;;
5616;SDS011;2830;50.656;7.568;2022-12-08T06:08:13;11.75;;;4.97;;
5616;SDS011;2830;50.656;7.568;2022-12-08T06:10:41;11.48;;;4.65;;
5616;SDS011;2830;50.656;7.568;2022-12-08T06:13:08;13.32;;;5.78;;
5616;SDS011;2830;50.656;7.568;2022-12-08T06:15:37;15.77;;;5.70;;
5616;SDS011;2830;50.656;7.568;2022-12-08T06:18:05;13.50;;;5.07;;
5616;SDS011;2830;50.656;7.568;2022-12-08T06:20:32;12.10;;;5.20;;
5616;SDS011;2830;50.656;7.568;2022-12-08T06:22:59;13.25;;;5.53;;
5616;SDS011;2830;50.656;7.568;2022-12-08T06:25:27;13.80;;;5.60;;
5616;SDS011;2830;50.656;7.568;2022-12-08T06:27:53;15.20;;;8.35;;
5616;SDS011;2830;50.656;7.568;2022-12-08T06:30:20;23.95;;;13.73;;
5616;SDS011;2830;50.656;7.568;2022-12-08T06:32:47;21.08;;;11.27;;
5616;SDS011;2830;50.656;7.568;2022-12-08T06:35:13;22.90;;;10.73;;
5616;SDS011;2830;50.656;7.568;2022-12-08T06:37:40;14.55;;;7.82;;
5616;SDS011;2830;50.656;7.568;2022-12-08T06:40:07;16.90;;;9.55;;
5616;SDS011;2830;50.656;7.568;2022-12-08T06:42:34;20.77;;;8.85;;
5616;SDS011;2830;50.656;7.568;2022-12-08T06:45:10;14.43;;;7.32;;
5616;SDS011;2830;50.656;7.568;2022-12-08T06:47:38;16.67;;;7.85;;
5616;SDS011;2830;50.656;7.568;2022-12-08T06:50:04;13.90;;;7.13;;
5616;SDS011;2830;50.656;7.568;2022-12-08T06:52:33;13.85;;;6.75;;
5616;SDS011;2830;50.656;7.568;2022-12-08T06:55:08;20.10;;;8.90;;
5616;SDS011;2830;50.656;7.568;2022-12-08T06:57:49;43.30;;;19.65;;
5616;SDS011;2830;50.656;7.568;2022-12-08T07:00:22;77.10;;;35.50;;
5616;SDS011;2830;50.656;7.568;2022-12-08T07:02:51;31.13;;;15.88;;
5616;SDS011;2830;50.656;7.568;2022-12-08T07:05:17;38.85;;;20.13;;
5616;SDS011;2830;50.656;7.568;2022-12-08T07:07:44;26.60;;;12.60;;
5616;SDS011;2830;50.656;7.568;2022-12-08T07:10:11;23.77;;;9.55;;
5616;SDS011;2830;50.656;7.568;2022-12-08T07:12:37;32.17;;;15.52;;
5616;SDS011;2830;50.656;7.568;2022-12-08T07:15:06;31.60;;;13.55;;
5616;SDS011;2830;50.656;7.568;2022-12-08T07:17:33;34.58;;;16.95;;
5616;SDS011;2830;50.656;7.568;2022-12-08T07:20:00;62.40;;;42.83;;
5616;SDS011;2830;50.656;7.568;2022-12-08T07:22:27;58.75;;;35.78;;
5616;SDS011;2830;50.656;7.568;2022-12-08T07:24:54;184.80;;;109.45;;
5616;SDS011;2830;50.656;7.568;2022-12-08T07:27:21;92.95;;;56.22;;
5616;SDS011;2830;50.656;7.568;2022-12-08T07:29:47;63.30;;;34.40;;
5616;SDS011;2830;50.656;7.568;2022-12-08T07:32:14;64.93;;;34.42;;
5616;SDS011;2830;50.656;7.568;2022-12-08T07:34:40;138.80;;;78.63;;
5616;SDS011;2830;50.656;7.568;2022-12-08T07:37:07;190.65;;;99.88;;
5616;SDS011;2830;50.656;7.568;2022-12-08T07:39:34;30.70;;;16.85;;
5616;SDS011;2830;50.656;7.568;2022-12-08T07:42:00;107.07;;;59.08;;
5616;SDS011;2830;50.656;7.568;2022-12-08T07:44:27;49.17;;;28.13;;
5616;SDS011;2830;50.656;7.568;2022-12-08T07:46:54;34.03;;;16.80;;
5616;SDS011;2830;50.656;7.568;2022-12-08T07:49:20;111.30;;;60.42;;
5616;SDS011;2830;50.656;7.568;2022-12-08T07:51:47;124.85;;;71.95;;
5616;SDS011;2830;50.656;7.568;2022-12-08T07:54:14;78.93;;;46.65;;
5616;SDS011;2830;50.656;7.568;2022-12-08T07:56:40;59.58;;;37.58;;
5616;SDS011;2830;50.656;7.568;2022-12-08T07:59:07;56.97;;;34.63;;
5616;SDS011;2830;50.656;7.568;2022-12-08T08:01:34;97.53;;;52.30;;
5616;SDS011;2830;50.656;7.568;2022-12-08T08:04:02;23.98;;;12.57;;
5616;SDS011;2830;50.656;7.568;2022-12-08T08:06:31;12.65;;;6.35;;
5616;SDS011;2830;50.656;7.568;2022-12-08T08:08:58;132.05;;;75.47;;
5616;SDS011;2830;50.656;7.568;2022-12-08T08:11:25;144.75;;;86.40;;
5616;SDS011;2830;50.656;7.568;2022-12-08T08:13:52;66.78;;;40.10;;
5616;SDS011;2830;50.656;7.568;2022-12-08T08:16:19;13.13;;;6.55;;
5616;SDS011;2830;50.656;7.568;2022-12-08T08:18:47;19.17;;;10.00;;
5616;SDS011;2830;50.656;7.568;2022-12-08T08:21:14;29.92;;;16.85;;
5616;SDS011;2830;50.656;7.568;2022-12-08T08:24:02;15.98;;;6.32;;
5616;SDS011;2830;50.656;7.568;2022-12-08T08:26:30;44.42;;;29.90;;
5616;SDS011;2830;50.656;7.568;2022-12-08T08:28:56;23.33;;;11.45;;
5616;SDS011;2830;50.656;7.568;2022-12-08T08:31:26;37.75;;;26.90;;
5616;SDS011;2830;50.656;7.568;2022-12-08T08:33:54;27.00;;;21.67;;
5616;SDS011;2830;50.656;7.568;2022-12-08T08:36:22;13.57;;;6.55;;
5616;SDS011;2830;50.656;7.568;2022-12-08T08:38:48;11.82;;;6.20;;
5616;SDS011;2830;50.656;7.568;2022-12-08T08:41:15;15.50;;;4.70;;
5616;SDS011;2830;50.656;7.568;2022-12-08T08:43:41;11.73;;;4.72;;
5616;SDS011;2830;50.656;7.568;2022-12-08T08:46:08;10.20;;;4.57;;
5616;SDS011;2830;50.656;7.568;2022-12-08T08:48:36;13.50;;;5.40;;
5616;SDS011;2830;50.656;7.568;2022-12-08T08:51:07;15.48;;;4.75;;
5616;SDS011;2830;50.656;7.568;2022-12-08T08:53:35;23.25;;;10.27;;
5616;SDS011;2830;50.656;7.568;2022-12-08T08:56:02;22.45;;;8.73;;
5616;SDS011;2830;50.656;7.568;2022-12-08T08:58:30;70.15;;;32.55;;
5616;SDS011;2830;50.656;7.568;2022-12-08T09:00:58;50.35;;;28.50;;
5616;SDS011;2830;50.656;7.568;2022-12-08T09:03:25;44.75;;;23.67;;
5616;SDS011;2830;50.656;7.568;2022-12-08T09:05:53;15.90;;;5.18;;
5616;SDS011;2830;50.656;7.568;2022-12-08T09:08:21;12.45;;;6.68;;
5616;SDS011;2830;50.656;7.568;2022-12-08T09:10:48;13.60;;;5.55;;
5616;SDS011;2830;50.656;7.568;2022-12-08T09:13:15;10.23;;;3.97;;
5616;SDS011;2830;50.656;7.568;2022-12-08T09:15:43;12.15;;;4.30;;
5616;SDS011;2830;50.656;7.568;2022-12-08T09:18:09;13.40;;;4.28;;
5616;SDS011;2830;50.656;7.568;2022-12-08T09:20:37;9.75;;;3.80;;
5616;SDS011;2830;50.656;7.568;2022-12-08T09:23:03;11.15;;;4.38;;
5616;SDS011;2830;50.656;7.568;2022-12-08T09:25:30;15.50;;;4.45;;
5616;SDS011;2830;50.656;7.568;2022-12-08T09:27:57;14.60;;;5.85;;
5616;SDS011;2830;50.656;7.568;2022-12-08T09:30:29;20.23;;;7.22;;
5616;SDS011;2830;50.656;7.568;2022-12-08T09:32:56;10.95;;;4.47;;
5616;SDS011;2830;50.656;7.568;2022-12-08T09:35:22;11.68;;;3.83;;
5616;SDS011;2830;50.656;7.568;2022-12-08T09:37:49;9.88;;;4.07;;
5616;SDS011;2830;50.656;7.568;2022-12-08T09:40:17;10.50;;;4.30;;
5616;SDS011;2830;50.656;7.568;2022-12-08T09:45:32;12.10;;;4.85;;
5616;SDS011;2830;50.656;7.568;2022-12-08T09:50:48;11.27;;;4.85;;
5616;SDS011;2830;50.656;7.568;2022-12-08T09:53:25;11.65;;;5.00;;
5616;SDS011;2830;50.656;7.568;2022-12-08T09:56:02;12.18;;;4.00;;
5616;SDS011;2830;50.656;7.568;2022-12-08T10:01:12;9.65;;;3.78;;
5616;SDS011;2830;50.656;7.568;2022-12-08T10:03:40;12.20;;;4.97;;
5616;SDS011;2830;50.656;7.568;2022-12-08T10:12:02;24.42;;;11.75;;
5616;SDS011;2830;50.656;7.568;2022-12-08T10:14:40;20.35;;;10.70;;
5616;SDS011;2830;50.656;7.568;2022-12-08T10:17:19;12.20;;;5.00;;
5616;SDS011;2830;50.656;7.568;2022-12-08T10:20:12;16.40;;;8.20;;
5616;SDS011;2830;50.656;7.568;2022-12-08T10:22:39;12.90;;;5.03;;
5616;SDS011;2830;50.656;7.568;2022-12-08T10:28:00;14.45;;;5.90;;
5616;SDS011;2830;50.656;7.568;2022-12-08T10:30:26;13.70;;;6.43;;
5616;SDS011;2830;50.656;7.568;2022-12-08T10:32:53;12.25;;;5.63;;
5616;SDS011;2830;50.656;7.568;2022-12-08T10:35:20;12.75;;;6.35;;
5616;SDS011;2830;50.656;7.568;2022-12-08T10:37:55;16.05;;;7.78;;
5616;SDS011;2830;50.656;7.568;2022-12-08T10:40:26;19.05;;;10.00;;
5616;SDS011;2830;50.656;7.568;2022-12-08T10:42:57;18.20;;;9.63;;
5616;SDS011;2830;50.656;7.568;2022-12-08T10:45:28;13.18;;;5.18;;
5616;SDS011;2830;50.656;7.568;2022-12-08T10:48:04;21.23;;;8.85;;
5616;SDS011;2830;50.656;7.568;2022-12-08T10:50:42;33.80;;;15.57;;
5616;SDS011;2830;50.656;7.568;2022-12-08T10:53:19;15.88;;;7.25;;
5616;SDS011;2830;50.656;7.568;2022-12-08T10:55:50;16.20;;;7.30;;
5616;SDS011;2830;50.656;7.568;2022-12-08T11:03:48;22.70;;;9.57;;
5616;SDS011;2830;50.656;7.568;2022-12-08T11:06:20;12.30;;;5.65;;
5616;SDS011;2830;50.656;7.568;2022-12-08T11:09:06;18.55;;;6.53;;
5616;SDS011;2830;50.656;7.568;2022-12-08T11:14:26;22.70;;;11.13;;
5616;SDS011;2830;50.656;7.568;2022-12-08T11:17:03;60.08;;;30.80;;
5616;SDS011;2830;50.656;7.568;2022-12-08T11:19:31;37.13;;;20.33;;
5616;SDS011;2830;50.656;7.568;2022-12-08T11:22:19;22.00;;;8.77;;
5616;SDS011;2830;50.656;7.568;2022-12-08T11:24:46;15.20;;;6.57;;
5616;SDS011;2830;50.656;7.568;2022-12-08T11:27:46;16.17;;;6.35;;
5616;SDS011;2830;50.656;7.568;2022-12-08T11:30:16;15.27;;;7.35;;
5616;SDS011;2830;50.656;7.568;2022-12-08T11:32:55;15.10;;;5.75;;
5616;SDS011;2830;50.656;7.568;2022-12-08T11:35:27;35.03;;;15.50;;
5616;SDS011;2830;50.656;7.568;2022-12-08T11:38:03;30.88;;;14.65;;
5616;SDS011;2830;50.656;7.568;2022-12-08T11:40:49;25.65;;;11.38;;
5616;SDS011;2830;50.656;7.568;2022-12-08T11:46:30;29.05;;;14.30;;
5616;SDS011;2830;50.656;7.568;2022-12-08T11:49:00;18.00;;;7.20;;
5616;SDS011;2830;50.656;7.568;2022-12-08T11:56:58;23.55;;;10.45;;
5616;SDS011;2830;50.656;7.568;2022-12-08T11:59:37;24.48;;;11.30;;
5616;SDS011;2830;50.656;7.568;2022-12-08T12:02:11;14.55;;;5.28;;
5616;SDS011;2830;50.656;7.568;2022-12-08T12:11:08;13.02;;;4.85;;
5616;SDS011;2830;50.656;7.568;2022-12-08T12:14:32;13.38;;;4.65;;
5616;SDS011;2830;50.656;7.568;2022-12-08T12:20:19;12.27;;;4.43;;
5616;SDS011;2830;50.656;7.568;2022-12-08T12:22:47;13.68;;;4.88;;
5616;SDS011;2830;50.656;7.568;2022-12-08T12:25:23;11.00;;;4.50;;
5616;SDS011;2830;50.656;7.568;2022-12-08T12:27:51;16.98;;;7.10;;
5616;SDS011;2830;50.656;7.568;2022-12-08T12:30:24;11.80;;;4.40;;
5616;SDS011;2830;50.656;7.568;2022-12-08T12:32:54;12.55;;;4.68;;
5616;SDS011;2830;50.656;7.568;2022-12-08T12:38:05;19.40;;;4.88;;
5616;SDS011;2830;50.656;7.568;2022-12-08T12:41:01;13.75;;;6.72;;
5616;SDS011;2830;50.656;7.568;2022-12-08T12:43:30;14.90;;;6.45;;
5616;SDS011;2830;50.656;7.568;2022-12-08T12:48:51;12.90;;;5.75;;
5616;SDS011;2830;50.656;7.568;2022-12-08T12:51:34;16.23;;;5.70;;
5616;SDS011;2830;50.656;7.568;2022-12-08T12:54:21;15.80;;;5.25;;
5616;SDS011;2830;50.656;7.568;2022-12-08T12:56:54;13.25;;;5.50;;
5616;SDS011;2830;50.656;7.568;2022-12-08T13:02:00;13.57;;;5.90;;
5616;SDS011;2830;50.656;7.568;2022-12-08T13:04:29;13.68;;;5.10;;
5616;SDS011;2830;50.656;7.568;2022-12-08T13:06:59;13.48;;;5.65;;
5616;SDS011;2830;50.656;7.568;2022-12-08T13:09:36;12.15;;;4.47;;
5616;SDS011;2830;50.656;7.568;2022-12-08T13:12:11;12.18;;;4.00;;
5616;SDS011;2830;50.656;7.568;2022-12-08T13:14:49;13.50;;;6.25;;
5616;SDS011;2830;50.656;7.568;2022-12-08T13:17:24;13.55;;;4.85;;
5616;SDS011;2830;50.656;7.568;2022-12-08T13:19:55;11.75;;;4.60;;
5616;SDS011;2830;50.656;7.568;2022-12-08T13:28:15;11.35;;;3.70;;
5616;SDS011;2830;50.656;7.568;2022-12-08T13:33:23;14.30;;;4.80;;
5616;SDS011;2830;50.656;7.568;2022-12-08T13:36:30;14.20;;;4.22;;
5616;SDS011;2830;50.656;7.568;2022-12-08T13:38:49;12.02;;;5.10;;
5616;SDS011;2830;50.656;7.568;2022-12-08T13:41:21;13.23;;;4.35;;
5616;SDS011;2830;50.656;7.568;2022-12-08T13:44:01;12.18;;;4.50;;
5616;SDS011;2830;50.656;7.568;2022-12-08T13:46:53;11.45;;;3.83;;
5616;SDS011;2830;50.656;7.568;2022-12-08T13:49:43;13.20;;;4.40;;
5616;SDS011;2830;50.656;7.568;2022-12-08T13:56:07;11.00;;;3.63;;
5616;SDS011;2830;50.656;7.568;2022-12-08T13:59:06;12.95;;;3.55;;
5616;SDS011;2830;50.656;7.568;2022-12-08T14:01:47;9.85;;;3.58;;
5616;SDS011;2830;50.656;7.568;2022-12-08T14:04:16;12.20;;;3.95;;
5616;SDS011;2830;50.656;7.568;2022-12-08T14:07:05;14.02;;;4.18;;
5616;SDS011;2830;50.656;7.568;2022-12-08T14:09:34;15.57;;;4.22;;
5616;SDS011;2830;50.656;7.568;2022-12-08T14:14:47;15.38;;;5.43;;
5616;SDS011;2830;50.656;7.568;2022-12-08T14:17:30;13.98;;;4.50;;
5616;SDS011;2830;50.656;7.568;2022-12-08T14:19:58;11.57;;;4.57;;
5616;SDS011;2830;50.656;7.568;2022-12-08T14:22:36;13.15;;;3.70;;
5616;SDS011;2830;50.656;7.568;2022-12-08T14:25:04;10.52;;;4.00;;
5616;SDS011;2830;50.656;7.568;2022-12-08T14:27:34;10.55;;;3.35;;
5616;SDS011;2830;50.656;7.568;2022-12-08T14:32:41;9.38;;;3.50;;
5616;SDS011;2830;50.656;7.568;2022-12-08T14:35:17;9.55;;;3.45;;
5616;SDS011;2830;50.656;7.568;2022-12-08T14:37:58;11.73;;;4.00;;
5616;SDS011;2830;50.656;7.568;2022-12-08T14:40:40;11.90;;;4.22;;
5616;SDS011;2830;50.656;7.568;2022-12-08T14:51:14;10.45;;;4.20;;
5616;SDS011;2830;50.656;7.568;2022-12-08T15:01:48;11.85;;;3.42;;
5616;SDS011;2830;50.656;7.568;2022-12-08T15:04:18;11.60;;;3.38;;
5616;SDS011;2830;50.656;7.568;2022-12-08T15:09:29;12.00;;;2.90;;
5616;SDS011;2830;50.656;7.568;2022-12-08T15:12:03;10.15;;;3.47;;
5616;SDS011;2830;50.656;7.568;2022-12-08T15:14:34;10.38;;;3.25;;
5616;SDS011;2830;50.656;7.568;2022-12-08T15:19:54;9.65;;;3.10;;
5616;SDS011;2830;50.656;7.568;2022-12-08T15:22:22;9.85;;;3.45;;
5616;SDS011;2830;50.656;7.568;2022-12-08T15:24:49;9.55;;;3.40;;
5616;SDS011;2830;50.656;7.568;2022-12-08T15:27:20;10.40;;;3.13;;
5616;SDS011;2830;50.656;7.568;2022-12-08T15:29:49;10.80;;;3.42;;
5616;SDS011;2830;50.656;7.568;2022-12-08T15:32:17;13.10;;;4.00;;
5616;SDS011;2830;50.656;7.568;2022-12-08T15:34:45;10.55;;;3.80;;
5616;SDS011;2830;50.656;7.568;2022-12-08T15:37:24;9.75;;;3.20;;
5616;SDS011;2830;50.656;7.568;2022-12-08T15:39:51;9.50;;;3.45;;
5616;SDS011;2830;50.656;7.568;2022-12-08T15:42:18;9.98;;;3.33;;
5616;SDS011;2830;50.656;7.568;2022-12-08T15:44:45;10.02;;;3.35;;
5616;SDS011;2830;50.656;7.568;2022-12-08T15:47:18;9.05;;;2.88;;
5616;SDS011;2830;50.656;7.568;2022-12-08T15:49:47;12.23;;;3.33;;
5616;SDS011;2830;50.656;7.568;2022-12-08T15:52:17;10.20;;;2.75;;
5616;SDS011;2830;50.656;7.568;2022-12-08T15:54:47;10.38;;;2.78;;
5616;SDS011;2830;50.656;7.568;2022-12-08T15:57:26;10.88;;;3.15;;
5616;SDS011;2830;50.656;7.568;2022-12-08T16:06:26;11.13;;;3.50;;
5616;SDS011;2830;50.656;7.568;2022-12-08T16:09:16;9.48;;;2.88;;
5616;SDS011;2830;50.656;7.568;2022-12-08T16:11:46;11.35;;;3.40;;
5616;SDS011;2830;50.656;7.568;2022-12-08T16:14:35;11.98;;;3.80;;
5616;SDS011;2830;50.656;7.568;2022-12-08T16:17:22;11.90;;;3.55;;
5616;SDS011;2830;50.656;7.568;2022-12-08T16:19:49;10.38;;;3.58;;
5616;SDS011;2830;50.656;7.568;2022-12-08T16:22:17;11.93;;;3.30;;
5616;SDS011;2830;50.656;7.568;2022-12-08T16:25:07;10.65;;;3.10;;
5616;SDS011;2830;50.656;7.568;2022-12-08T16:27:50;9.80;;;2.47;;
5616;SDS011;2830;50.656;7.568;2022-12-08T16:30:38;14.90;;;3.80;;
5616;SDS011;2830;50.656;7.568;2022-12-08T16:33:05;9.65;;;2.97;;
5616;SDS011;2830;50.656;7.568;2022-12-08T16:35:32;11.68;;;3.60;;
5616;SDS011;2830;50.656;7.568;2022-12-08T16:37:59;9.82;;;3.20;;
5616;SDS011;2830;50.656;7.568;2022-12-08T16:40:25;14.13;;;3.97;;
5616;SDS011;2830;50.656;7.568;2022-12-08T16:42:53;9.10;;;3.10;;
5616;SDS011;2830;50.656;7.568;2022-12-08T16:47:52;9.50;;;3.33;;
5616;SDS011;2830;50.656;7.568;2022-12-08T16:50:21;9.55;;;3.28;;
5616;SDS011;2830;50.656;7.568;2022-12-08T16:52:56;9.88;;;3.42;;
5616;SDS011;2830;50.656;7.568;2022-12-08T16:55:29;13.15;;;3.03;;
5616;SDS011;2830;50.656;7.568;2022-12-08T16:57:56;11.13;;;3.42;;
5616;SDS011;2830;50.656;7.568;2022-12-08T17:00:23;12.60;;;3.63;;
5616;SDS011;2830;50.656;7.568;2022-12-08T17:02:53;10.63;;;3.40;;
5616;SDS011;2830;50.656;7.568;2022-12-08T17:05:21;10.07;;;3.75;;
5616;SDS011;2830;50.656;7.568;2022-12-08T17:07:49;13.90;;;5.75;;
5616;SDS011;2830;50.656;7.568;2022-12-08T17:10:18;13.80;;;5.20;;
5616;SDS011;2830;50.656;7.568;2022-12-08T17:12:48;13.65;;;5.90;;
5616;SDS011;2830;50.656;7.568;2022-12-08T17:15:16;30.63;;;17.40;;
5616;SDS011;2830;50.656;7.568;2022-12-08T17:17:45;34.75;;;22.05;;
5616;SDS011;2830;50.656;7.568;2022-12-08T17:20:13;33.42;;;19.08;;
5616;SDS011;2830;50.656;7.568;2022-12-08T17:22:42;43.17;;;25.55;;